Time;durP1;ratioP1;P1;durP2;ratioP2;P2;SDS_P1;SDS_P2;PMS_P1;PMS_P2;Temp;Humidity;BMP_temperature;BMP_pressure;BME280_temperature;BME280_humidity;BME280_pressure;Samples;Min_cycle;Max_cycle;Signal;HPM_P1;HPM_P2
2022/05/02 00:00:54;;;;;;;6.70;4.03;;;9.60;97.30;;;;;;5031097;28;20192;-76
2022/05/02 00:03:20;;;;;;;8.37;5.30;;;9.60;97.30;;;;;;5031132;28;20415;-77
2022/05/02 00:05:46;;;;;;;8.00;4.63;;;9.50;97.30;;;;;;5032087;28;20678;-76
2022/05/02 00:08:12;;;;;;;6.37;3.90;;;9.40;97.30;;;;;;5030769;28;20426;-76
2022/05/02 00:10:38;;;;;;;7.87;5.10;;;9.40;97.30;;;;;;5030876;28;20250;-77
2022/05/02 00:13:06;;;;;;;9.37;4.63;;;9.30;97.30;;;;;;5030463;28;20494;-76
2022/05/02 00:15:32;;;;;;;10.90;4.63;;;9.30;97.30;;;;;;5030342;28;20235;-75
2022/05/02 00:17:58;;;;;;;6.83;5.53;;;9.30;97.30;;;;;;5030471;28;20415;-76
2022/05/02 00:20:36;;;;;;;8.47;4.50;;;9.30;97.30;;;;;;5030508;28;20951;-77
2022/05/02 00:23:04;;;;;;;14.50;5.50;;;9.20;97.30;;;;;;5030357;28;20780;-77
2022/05/02 00:25:30;;;;;;;8.23;4.80;;;9.20;97.30;;;;;;5030705;28;20476;-76
2022/05/02 00:27:57;;;;;;;8.10;5.27;;;9.10;97.30;;;;;;5031678;28;20514;-76
2022/05/02 00:30:23;;;;;;;9.77;5.00;;;9.10;97.30;;;;;;5030319;28;20415;-76
2022/05/02 00:32:49;;;;;;;8.10;5.67;;;9.10;97.30;;;;;;5031873;28;20422;-76
2022/05/02 00:35:15;;;;;;;9.53;4.90;;;9.00;97.30;;;;;;5030283;28;20478;-76
2022/05/02 00:37:42;;;;;;;8.07;5.00;;;9.00;97.30;;;;;;5030103;28;20424;-75
2022/05/02 00:40:10;;;;;;;8.40;5.30;;;9.00;97.30;;;;;;5031729;28;20419;-75
2022/05/02 00:42:36;;;;;;;8.80;5.57;;;8.90;97.30;;;;;;5031451;28;20412;-75
2022/05/02 00:45:03;;;;;;;8.27;5.47;;;8.90;97.30;;;;;;5031249;28;20437;-75
2022/05/02 00:47:29;;;;;;;8.47;5.33;;;8.80;97.30;;;;;;5031682;28;20784;-76
2022/05/02 00:49:55;;;;;;;7.90;4.83;;;8.80;97.30;;;;;;5031333;28;21034;-76
2022/05/02 00:52:20;;;;;;;9.03;4.77;;;8.70;97.30;;;;;;5029659;28;20184;-75
2022/05/02 00:54:46;;;;;;;11.47;5.60;;;8.70;97.30;;;;;;5029675;28;20678;-76
2022/05/02 00:57:13;;;;;;;10.30;5.40;;;8.70;97.30;;;;;;5030792;28;20173;-76
2022/05/02 00:59:39;;;;;;;7.83;4.90;;;8.70;97.30;;;;;;5031227;28;20411;-76
2022/05/02 01:02:08;;;;;;;11.30;5.43;;;8.70;97.30;;;;;;5029789;28;20419;-76
2022/05/02 01:04:34;;;;;;;7.13;5.17;;;8.60;97.30;;;;;;5029650;28;20288;-76
2022/05/02 01:07:10;;;;;;;8.33;4.90;;;8.60;97.30;;;;;;5029893;28;20455;-76
2022/05/02 01:09:38;;;;;;;10.20;5.70;;;8.60;97.30;;;;;;5030921;28;20438;-76
2022/05/02 01:12:25;;;;;;;7.63;4.50;;;8.50;97.30;;;;;;5029585;28;20411;-76
2022/05/02 01:14:53;;;;;;;8.83;5.10;;;8.50;97.30;;;;;;5029089;28;20475;-76
2022/05/02 01:17:20;;;;;;;10.03;5.57;;;8.50;97.30;;;;;;5030939;28;20411;-76
2022/05/02 01:19:47;;;;;;;7.57;5.23;;;8.50;97.30;;;;;;5029417;28;20777;-76
2022/05/02 01:22:13;;;;;;;8.10;5.20;;;8.40;97.30;;;;;;5029634;28;20423;-76
2022/05/02 01:24:47;;;;;;;9.17;5.43;;;8.40;97.30;;;;;;5029317;28;20537;-76
2022/05/02 01:27:14;;;;;;;8.87;5.40;;;8.40;97.30;;;;;;5031242;28;20323;-76
2022/05/02 01:29:42;;;;;;;8.77;5.00;;;8.40;97.30;;;;;;5030592;28;20415;-76
2022/05/02 01:32:12;;;;;;;8.33;5.53;;;8.40;97.30;;;;;;5029328;28;20446;-76
2022/05/02 01:34:41;;;;;;;9.90;5.60;;;8.40;97.30;;;;;;5029139;28;21014;-76
2022/05/02 01:37:11;;;;;;;13.53;5.63;;;8.40;97.30;;;;;;5021706;28;20420;-76
2022/05/02 01:39:37;;;;;;;10.63;5.43;;;8.40;97.30;;;;;;5010539;28;20515;-76
2022/05/02 01:42:08;;;;;;;8.33;4.97;;;8.40;97.30;;;;;;5010545;28;20413;-76
2022/05/02 01:44:35;;;;;;;8.60;5.13;;;8.30;97.30;;;;;;5008984;28;20522;-76
2022/05/02 01:47:01;;;;;;;9.37;5.07;;;8.30;97.30;;;;;;5010563;28;20428;-75
2022/05/02 01:49:27;;;;;;;10.23;5.80;;;8.30;97.30;;;;;;5010375;28;20963;-76
2022/05/02 01:51:53;;;;;;;13.43;4.97;;;8.20;97.30;;;;;;5010284;28;20506;-76
2022/05/02 01:54:19;;;;;;;10.77;5.83;;;8.20;97.30;;;;;;5010465;28;20241;-76
2022/05/02 01:56:45;;;;;;;10.03;5.70;;;8.20;97.30;;;;;;5010573;28;20862;-76
2022/05/02 01:59:11;;;;;;;11.03;5.40;;;8.20;97.30;;;;;;5009026;28;20591;-76
2022/05/02 02:01:37;;;;;;;10.50;5.70;;;8.10;97.30;;;;;;5008350;28;20216;-75
2022/05/02 02:06:49;;;;;;;8.80;6.00;;;8.10;97.30;;;;;;5010448;28;20475;-76
2022/05/02 02:09:15;;;;;;;9.97;6.30;;;8.00;97.30;;;;;;5010005;28;20497;-76
2022/05/02 02:11:44;;;;;;;11.77;6.23;;;8.00;97.30;;;;;;5010267;28;20752;-76
2022/05/02 02:14:10;;;;;;;8.73;5.53;;;8.00;97.30;;;;;;5008560;28;20484;-75
2022/05/02 02:16:36;;;;;;;10.17;5.77;;;7.90;97.30;;;;;;5009345;28;20427;-76
2022/05/02 02:19:04;;;;;;;11.80;5.87;;;7.90;97.30;;;;;;5008876;28;20902;-75
2022/05/02 02:21:32;;;;;;;13.93;6.33;;;7.90;97.30;;;;;;5009099;28;20460;-75
2022/05/02 02:23:58;;;;;;;13.83;5.87;;;7.90;97.30;;;;;;5009990;28;20438;-76
2022/05/02 02:26:24;;;;;;;15.17;6.40;;;7.80;97.30;;;;;;5008558;28;21020;-76
2022/05/02 02:28:49;;;;;;;13.93;7.03;;;7.80;97.30;;;;;;5008500;28;20431;-76
2022/05/02 02:31:16;;;;;;;9.00;6.10;;;7.80;97.30;;;;;;5009718;28;20411;-74
2022/05/02 02:33:43;;;;;;;10.83;5.93;;;7.80;97.30;;;;;;5008617;28;20272;-73
2022/05/02 02:36:09;;;;;;;9.90;6.60;;;7.80;97.30;;;;;;5008870;28;20482;-74
2022/05/02 02:38:34;;;;;;;10.70;5.70;;;7.80;97.30;;;;;;5029468;28;20411;-74
2022/05/02 02:41:00;;;;;;;15.33;6.10;;;7.70;97.30;;;;;;5028607;28;20207;-75
2022/05/02 02:43:26;;;;;;;10.87;6.20;;;7.70;97.30;;;;;;5029844;28;20168;-75
2022/05/02 02:45:51;;;;;;;13.97;6.10;;;7.70;97.30;;;;;;5028305;28;20242;-73
2022/05/02 02:48:17;;;;;;;9.07;5.53;;;7.70;97.30;;;;;;5028099;28;20184;-74
2022/05/02 02:50:42;;;;;;;11.50;6.80;;;7.70;97.30;;;;;;5028037;28;20206;-74
2022/05/02 02:53:08;;;;;;;9.53;6.20;;;7.70;97.30;;;;;;5027741;28;20212;-75
2022/05/02 02:55:33;;;;;;;13.10;5.80;;;7.60;97.30;;;;;;5027645;28;20239;-75
2022/05/02 02:57:59;;;;;;;10.90;7.27;;;7.60;97.30;;;;;;5029250;28;20176;-75
2022/05/02 03:00:25;;;;;;;10.43;5.67;;;7.60;97.30;;;;;;5029103;28;20260;-75
2022/05/02 03:02:53;;;;;;;14.20;7.30;;;7.60;97.30;;;;;;5029431;28;20639;-74
2022/05/02 03:08:04;;;;;;;9.80;6.50;;;7.60;97.30;;;;;;5029706;28;20464;-75
2022/05/02 03:10:30;;;;;;;19.50;6.47;;;7.50;97.30;;;;;;5028332;28;20420;-76
2022/05/02 03:12:57;;;;;;;15.13;6.97;;;7.50;97.30;;;;;;5028950;28;20516;-75
2022/05/02 03:15:24;;;;;;;8.97;5.90;;;7.50;97.30;;;;;;5032964;28;20686;-75
2022/05/02 03:17:50;;;;;;;11.00;6.53;;;7.50;97.30;;;;;;5033461;28;20790;-75
2022/05/02 03:20:16;;;;;;;9.73;6.10;;;7.50;97.30;;;;;;5033019;28;20445;-75
2022/05/02 03:22:42;;;;;;;18.97;6.80;;;7.50;97.30;;;;;;5031795;28;20176;-74
2022/05/02 03:25:08;;;;;;;11.53;6.60;;;7.50;97.30;;;;;;5032763;28;20439;-74
2022/05/02 03:27:35;;;;;;;13.20;6.53;;;7.50;97.30;;;;;;5031579;28;20443;-74
2022/05/02 03:30:05;;;;;;;12.17;6.23;;;7.60;97.30;;;;;;5031445;28;20427;-74
2022/05/02 03:32:30;;;;;;;14.90;7.90;;;7.60;97.30;;;;;;5031417;28;20419;-75
2022/05/02 03:34:56;;;;;;;14.03;7.30;;;7.60;97.30;;;;;;5032780;28;20832;-75
2022/05/02 03:37:22;;;;;;;12.30;5.97;;;7.50;97.30;;;;;;5021989;28;20264;-74
2022/05/02 03:39:47;;;;;;;14.30;6.83;;;7.50;97.30;;;;;;5011248;28;20181;-74
2022/05/02 03:42:15;;;;;;;11.87;6.90;;;7.40;97.30;;;;;;5011386;28;20415;-74
2022/05/02 03:44:47;;;;;;;11.87;7.13;;;7.40;97.30;;;;;;5011088;28;20248;-73
2022/05/02 03:47:16;;;;;;;10.73;6.80;;;7.30;97.30;;;;;;5011357;28;20416;-74
2022/05/02 03:49:44;;;;;;;14.37;7.60;;;7.30;97.30;;;;;;5012844;28;20443;-74
2022/05/02 03:52:10;;;;;;;11.33;7.30;;;7.20;97.30;;;;;;5011310;28;20416;-74
2022/05/02 03:54:36;;;;;;;12.80;6.63;;;7.20;97.30;;;;;;5011133;28;20464;-74
2022/05/02 03:57:02;;;;;;;11.50;7.30;;;7.20;97.30;;;;;;5011449;28;20204;-74
2022/05/02 03:59:28;;;;;;;13.80;6.47;;;7.20;97.30;;;;;;5011435;28;20181;-75
2022/05/02 04:01:53;;;;;;;13.03;7.30;;;7.20;97.30;;;;;;5011446;28;20515;-75
2022/05/02 04:04:19;;;;;;;11.93;7.40;;;7.20;97.30;;;;;;5012054;28;20208;-75
2022/05/02 04:06:46;;;;;;;11.10;6.87;;;7.20;97.30;;;;;;5019337;28;20180;-75
2022/05/02 04:09:12;;;;;;;11.77;6.70;;;7.20;97.30;;;;;;5019002;28;20235;-74
2022/05/02 04:11:37;;;;;;;14.50;7.00;;;7.20;97.30;;;;;;5020916;28;20422;-74
2022/05/02 04:14:03;;;;;;;16.13;7.90;;;7.20;97.30;;;;;;5017960;28;20231;-73
2022/05/02 04:16:29;;;;;;;13.13;7.07;;;7.20;97.30;;;;;;5027880;28;20196;-74
2022/05/02 04:18:55;;;;;;;12.13;6.73;;;7.20;97.30;;;;;;5026468;28;20272;-74
2022/05/02 04:21:20;;;;;;;12.03;6.77;;;7.20;97.30;;;;;;5011938;28;20185;-74
2022/05/02 04:23:46;;;;;;;14.63;6.80;;;7.20;97.30;;;;;;5024813;28;20174;-75
2022/05/02 04:26:12;;;;;;;11.73;7.20;;;7.20;97.30;;;;;;5024790;28;20192;-74
2022/05/02 04:28:37;;;;;;;14.97;7.30;;;7.20;97.30;;;;;;5017559;28;20244;-73
2022/05/02 04:31:03;;;;;;;9.57;6.23;;;7.20;97.30;;;;;;5022597;28;20431;-74
2022/05/02 04:33:29;;;;;;;12.20;7.10;;;7.20;97.30;;;;;;5027633;28;20263;-74
2022/05/02 04:35:55;;;;;;;8.97;5.70;;;7.30;97.30;;;;;;5030129;28;21081;-74
2022/05/02 04:38:20;;;;;;;12.77;7.77;;;7.30;97.30;;;;;;5010096;28;20548;-74
2022/05/02 04:40:46;;;;;;;12.50;6.83;;;7.30;97.30;;;;;;5008316;28;20554;-75
2022/05/02 04:43:13;;;;;;;12.67;7.23;;;7.40;97.30;;;;;;5008926;28;20181;-74
2022/05/02 04:45:39;;;;;;;13.63;6.20;;;7.40;97.30;;;;;;5009824;28;20745;-73
2022/05/02 04:48:05;;;;;;;17.43;6.67;;;7.50;97.30;;;;;;5008877;28;20918;-73
2022/05/02 04:50:31;;;;;;;12.33;7.57;;;7.60;97.30;;;;;;5008653;28;20452;-74
2022/05/02 04:52:57;;;;;;;16.83;6.73;;;7.60;97.30;;;;;;5011351;28;20498;-74
2022/05/02 04:55:22;;;;;;;12.83;7.77;;;7.70;97.30;;;;;;5010420;28;20220;-75
2022/05/02 04:57:48;;;;;;;12.70;7.83;;;7.80;97.30;;;;;;5011408;28;20240;-75
2022/05/02 05:00:16;;;;;;;17.83;7.93;;;7.90;97.30;;;;;;5009891;28;20659;-75
2022/05/02 05:02:42;;;;;;;16.03;8.13;;;8.00;97.30;;;;;;5009929;28;20232;-75
2022/05/02 05:05:08;;;;;;;14.90;7.53;;;8.10;97.30;;;;;;5011029;28;20440;-75
2022/05/02 05:07:36;;;;;;;19.20;8.10;;;8.30;97.30;;;;;;5011166;28;20185;-74
2022/05/02 05:10:02;;;;;;;15.83;7.20;;;8.40;97.30;;;;;;5011009;28;20424;-74
2022/05/02 05:13:01;;;;;;;10.90;8.00;;;8.40;97.30;;;;;;5011496;28;20500;-75
2022/05/02 05:16:24;;;;;;;12.47;7.13;;;8.50;97.30;;;;;;5009776;28;20412;-75
2022/05/02 05:19:25;;;;;;;11.47;6.30;;;8.60;97.30;;;;;;5010387;28;20425;-76
2022/05/02 05:22:20;;;;;;;16.20;6.73;;;8.70;97.30;;;;;;4991761;28;20426;-75
2022/05/02 05:25:16;;;;;;;13.10;7.30;;;8.80;97.30;;;;;;5009428;28;20547;-75
2022/05/02 05:28:36;;;;;;;17.20;7.90;;;8.80;97.30;;;;;;5011329;28;20408;-74
2022/05/02 05:31:23;;;;;;;17.40;7.57;;;8.90;97.30;;;;;;4990747;28;20447;-75
2022/05/02 05:34:06;;;;;;;14.70;8.53;;;9.00;97.30;;;;;;5021886;28;20431;-76
2022/05/02 05:36:56;;;;;;;15.70;7.53;;;9.00;97.30;;;;;;5028517;28;20419;-75
2022/05/02 05:39:35;;;;;;;15.07;7.90;;;9.10;97.30;;;;;;5013442;28;20940;-76
2022/05/02 05:42:17;;;;;;;14.23;7.80;;;9.10;97.30;;;;;;5017043;28;20403;-76
2022/05/02 05:45:04;;;;;;;14.40;8.10;;;9.20;97.30;;;;;;5014049;28;20436;-75
2022/05/02 05:47:51;;;;;;;13.80;8.40;;;9.20;97.30;;;;;;5015347;28;20411;-76
2022/05/02 05:50:29;;;;;;;14.57;8.50;;;9.30;97.30;;;;;;5024596;28;21012;-76
2022/05/02 05:53:09;;;;;;;19.00;8.70;;;9.40;97.30;;;;;;5014114;28;20941;-75
2022/05/02 05:56:07;;;;;;;15.53;8.40;;;9.50;97.30;;;;;;5021598;28;20490;-76
2022/05/02 05:59:07;;;;;;;13.03;7.27;;;9.60;97.30;;;;;;5019270;28;20493;-76
2022/05/02 06:01:42;;;;;;;11.13;7.17;;;9.70;97.30;;;;;;5017638;28;20417;-76
2022/05/02 06:04:10;;;;;;;12.30;7.33;;;9.80;97.30;;;;;;5009323;28;20461;-76
2022/05/02 06:06:36;;;;;;;15.47;7.40;;;9.90;97.30;;;;;;5013500;28;20898;-76
2022/05/02 06:09:05;;;;;;;17.73;8.00;;;10.00;97.30;;;;;;5010440;28;20432;-75
2022/05/02 06:11:33;;;;;;;13.53;7.60;;;10.10;97.30;;;;;;5022773;28;20423;-78
2022/05/02 06:14:01;;;;;;;13.63;8.63;;;10.10;97.30;;;;;;5030907;28;20467;-78
2022/05/02 06:19:28;;;;;;;14.00;8.20;;;10.30;97.30;;;;;;5035939;28;21024;-78
2022/05/02 06:21:55;;;;;;;17.90;7.27;;;10.50;97.30;;;;;;5034490;28;20415;-78
2022/05/02 06:24:26;;;;;;;13.63;7.60;;;10.60;97.30;;;;;;5033054;28;20403;-78
2022/05/02 06:26:54;;;;;;;11.13;6.80;;;10.70;97.30;;;;;;5029618;28;20411;-76
2022/05/02 06:29:21;;;;;;;10.20;6.47;;;10.80;97.30;;;;;;5029581;28;20506;-78
2022/05/02 06:31:50;;;;;;;12.83;7.60;;;10.90;97.30;;;;;;5028922;28;20412;-78
2022/05/02 06:34:26;;;;;;;11.30;7.07;;;11.10;97.30;;;;;;5031162;28;20404;-76
2022/05/02 06:37:00;;;;;;;15.20;7.80;;;11.20;97.30;;;;;;5030562;28;20418;-79
2022/05/02 06:39:51;;;;;;;11.37;6.87;;;11.20;96.40;;;;;;5032906;28;20402;-79
2022/05/02 06:42:21;;;;;;;11.80;6.40;;;11.30;96.50;;;;;;5029930;28;20510;-79
2022/05/02 06:45:06;;;;;;;18.00;8.77;;;11.40;96.10;;;;;;5030891;28;20459;-79
2022/05/02 06:47:48;;;;;;;10.07;6.57;;;11.50;96.10;;;;;;5034998;28;20426;-80
2022/05/02 06:50:18;;;;;;;14.30;7.70;;;11.60;95.70;;;;;;5035206;28;20422;-78
2022/05/02 06:53:35;;;;;;;16.13;7.20;;;11.70;96.50;;;;;;5037008;28;20817;-80
2022/05/02 06:56:10;;;;;;;10.40;6.90;;;11.90;96.00;;;;;;5025384;28;20561;-79
2022/05/02 06:58:50;;;;;;;13.87;7.20;;;12.00;95.90;;;;;;5033367;28;20452;-78
2022/05/02 07:01:44;;;;;;;14.17;7.83;;;12.10;95.90;;;;;;5034181;28;20423;-79
2022/05/02 07:04:25;;;;;;;11.93;7.30;;;12.20;95.70;;;;;;5035617;28;20428;-78
2022/05/02 07:07:01;;;;;;;15.90;8.33;;;12.30;95.10;;;;;;5033447;28;20423;-79
2022/05/02 07:09:30;;;;;;;10.80;7.00;;;12.40;94.90;;;;;;5032507;28;20425;-79
2022/05/02 07:12:11;;;;;;;15.60;7.90;;;12.50;94.60;;;;;;5032357;28;20423;-77
2022/05/02 07:14:47;;;;;;;10.43;6.70;;;12.60;94.60;;;;;;5035576;28;20491;-79
2022/05/02 07:17:25;;;;;;;15.80;6.80;;;12.70;94.20;;;;;;5040420;28;20419;-78
2022/05/02 07:20:03;;;;;;;15.33;7.37;;;12.70;93.90;;;;;;5039542;28;20430;-79
2022/05/02 07:22:38;;;;;;;12.03;6.83;;;12.90;94.00;;;;;;5035844;28;20422;-80
2022/05/02 07:25:12;;;;;;;13.03;6.80;;;13.00;93.60;;;;;;5036152;28;20510;-80
2022/05/02 07:28:05;;;;;;;13.10;7.20;;;13.10;93.80;;;;;;5031205;28;20419;-80
2022/05/02 07:30:32;;;;;;;10.93;7.10;;;13.30;92.80;;;;;;5031385;28;20434;-80
2022/05/02 07:33:01;;;;;;;10.00;6.87;;;13.40;93.10;;;;;;5034746;28;20419;-79
2022/05/02 07:35:29;;;;;;;10.53;7.20;;;13.50;92.70;;;;;;5032829;28;20466;-79
2022/05/02 07:37:58;;;;;;;11.43;7.50;;;13.60;92.00;;;;;;5035307;28;20458;-81
2022/05/02 07:40:25;;;;;;;11.53;6.83;;;13.70;92.70;;;;;;5038228;28;20407;-81
2022/05/02 07:42:55;;;;;;;12.17;7.50;;;13.90;93.30;;;;;;5015327;28;20514;-80
2022/05/02 07:45:28;;;;;;;13.70;6.43;;;14.00;91.40;;;;;;5036645;28;20647;-78
2022/05/02 07:47:57;;;;;;;10.27;5.87;;;14.10;91.00;;;;;;5039534;28;20831;-76
2022/05/02 07:50:25;;;;;;;18.20;6.80;;;14.20;90.30;;;;;;5031791;28;20415;-77
2022/05/02 07:52:52;;;;;;;10.80;6.20;;;14.30;91.00;;;;;;5029808;28;20434;-77
2022/05/02 07:55:21;;;;;;;12.30;5.60;;;14.40;89.60;;;;;;5030392;28;21117;-77
2022/05/02 07:57:48;;;;;;;13.37;5.87;;;14.50;90.10;;;;;;5032387;28;20418;-78
2022/05/02 08:00:16;;;;;;;11.83;6.43;;;14.60;89.50;;;;;;5010912;28;20424;-77
2022/05/02 08:02:47;;;;;;;10.37;6.10;;;14.70;88.30;;;;;;5028990;28;20415;-78
2022/05/02 08:05:20;;;;;;;10.17;5.97;;;14.80;88.90;;;;;;5028894;28;20465;-79
2022/05/02 08:07:45;;;;;;;11.47;7.27;;;14.80;88.30;;;;;;5030160;28;20412;-79
2022/05/02 08:10:49;;;;;;;9.03;6.13;;;14.90;88.80;;;;;;5028992;28;20943;-77
2022/05/02 08:13:41;;;;;;;10.20;5.77;;;15.00;88.70;;;;;;5028975;28;20315;-78
2022/05/02 08:16:23;;;;;;;16.43;6.73;;;15.10;89.40;;;;;;5030051;28;20471;-78
2022/05/02 08:19:09;;;;;;;12.17;6.37;;;15.20;87.90;;;;;;5031976;28;20905;-79
2022/05/02 08:21:50;;;;;;;9.73;6.60;;;15.30;88.30;;;;;;5030387;28;20537;-79
2022/05/02 08:28:02;;;;;;;16.03;6.17;;;15.60;88.20;;;;;;5032279;28;20447;-79
2022/05/02 08:30:38;;;;;;;10.83;6.57;;;15.70;86.90;;;;;;5030350;28;20710;-79
2022/05/02 08:33:08;;;;;;;13.53;7.30;;;15.90;87.50;;;;;;5031155;28;20472;-79
2022/05/02 08:35:45;;;;;;;9.60;6.10;;;16.00;86.00;;;;;;5030725;28;20463;-77
2022/05/02 08:38:40;;;;;;;12.93;6.70;;;16.10;86.10;;;;;;5015853;28;20420;-79
2022/05/02 08:41:08;;;;;;;12.47;6.57;;;16.10;84.70;;;;;;5012468;28;20415;-79
2022/05/02 08:43:50;;;;;;;12.80;6.77;;;16.20;85.40;;;;;;5012879;28;20404;-80
2022/05/02 08:46:50;;;;;;;9.40;6.03;;;16.20;85.60;;;;;;5012845;28;21020;-80
2022/05/02 08:49:37;;;;;;;9.43;6.37;;;16.20;85.10;;;;;;5012399;28;20512;-80
2022/05/02 08:52:21;;;;;;;10.53;6.70;;;16.20;84.60;;;;;;5012112;28;20412;-80
2022/05/02 08:54:54;;;;;;;10.83;6.37;;;16.30;85.00;;;;;;5013153;28;20468;-80
2022/05/02 08:57:49;;;;;;;11.13;7.10;;;16.40;85.80;;;;;;5015661;28;20401;-80
2022/05/02 09:00:46;;;;;;;10.70;6.60;;;16.70;86.20;;;;;;5014466;28;20413;-80
2022/05/02 09:03:45;;;;;;;13.10;6.90;;;16.80;83.70;;;;;;5015803;28;20408;-80
2022/05/02 09:06:52;;;;;;;11.23;6.33;;;17.00;83.50;;;;;;5014962;28;20463;-81
2022/05/02 09:09:48;;;;;;;12.27;7.13;;;17.10;84.30;;;;;;5015688;28;20813;-80
2022/05/02 09:12:47;;;;;;;12.73;6.67;;;17.20;83.00;;;;;;5016010;28;20454;-79
2022/05/02 09:15:40;;;;;;;12.13;6.80;;;17.30;82.70;;;;;;5013651;28;20472;-80
2022/05/02 09:18:24;;;;;;;14.10;6.50;;;17.30;82.30;;;;;;5015432;28;21102;-80
2022/05/02 09:21:12;;;;;;;11.13;7.03;;;17.40;82.40;;;;;;5016735;28;20412;-80
2022/05/02 09:23:58;;;;;;;13.80;6.83;;;17.40;83.10;;;;;;5015217;28;20412;-79
2022/05/02 09:27:11;;;;;;;15.57;7.10;;;17.60;82.40;;;;;;5013779;28;20452;-80
2022/05/02 09:30:14;;;;;;;11.67;6.53;;;17.80;82.80;;;;;;5011981;28;20921;-80
2022/05/02 09:32:47;;;;;;;10.70;6.57;;;17.90;81.20;;;;;;5012255;28;20507;-80
2022/05/02 09:35:33;;;;;;;11.23;5.70;;;17.90;80.60;;;;;;5011683;28;20463;-79
2022/05/02 09:38:23;;;;;;;8.00;5.33;;;17.90;80.80;;;;;;5030896;28;20437;-78
2022/05/02 09:41:06;;;;;;;12.33;6.87;;;18.00;80.60;;;;;;5032061;28;20481;-78
2022/05/02 09:50:37;;;;;;;10.30;6.63;;;18.20;79.90;;;;;;5034272;28;20406;-80
2022/05/02 09:53:26;;;;;;;11.43;6.00;;;18.30;80.20;;;;;;5032821;28;20427;-80
2022/05/02 09:58:43;;;;;;;10.30;6.30;;;18.40;80.60;;;;;;5031422;28;20450;-78
2022/05/02 10:01:21;;;;;;;12.17;7.00;;;18.50;79.40;;;;;;5030621;28;20864;-77
2022/05/02 10:04:08;;;;;;;8.33;6.10;;;18.50;79.00;;;;;;5032470;28;20399;-78
2022/05/02 10:06:51;;;;;;;8.83;6.40;;;18.60;79.60;;;;;;5033210;28;20419;-78
2022/05/02 10:09:47;;;;;;;15.10;6.90;;;18.70;79.00;;;;;;5031287;28;20473;-78
2022/05/02 10:12:31;;;;;;;12.50;6.37;;;18.80;78.20;;;;;;5031874;28;20477;-78
2022/05/02 10:15:15;;;;;;;19.33;6.13;;;18.80;78.10;;;;;;5033723;28;20474;-78
2022/05/02 10:18:02;;;;;;;12.33;6.40;;;18.90;78.30;;;;;;5031088;28;21098;-78
2022/05/02 10:20:54;;;;;;;9.50;5.50;;;18.90;78.50;;;;;;5030020;28;20925;-77
2022/05/02 10:23:52;;;;;;;7.87;6.10;;;19.00;78.50;;;;;;5031175;28;20399;-77
2022/05/02 10:26:52;;;;;;;11.97;5.80;;;19.20;77.20;;;;;;5027350;28;20438;-78
2022/05/02 10:29:38;;;;;;;12.10;6.20;;;19.40;76.90;;;;;;5031563;28;20400;-79
2022/05/02 10:32:16;;;;;;;9.33;5.43;;;19.50;75.90;;;;;;5034414;28;20426;-84
2022/05/02 10:34:58;;;;;;;9.90;5.77;;;19.40;76.50;;;;;;5028373;28;20461;-83
2022/05/02 10:37:31;;;;;;;7.87;5.50;;;19.40;76.50;;;;;;5035402;28;20430;-77
2022/05/02 10:40:16;;;;;;;9.10;5.60;;;19.50;76.50;;;;;;5033352;28;20465;-78
2022/05/02 10:42:50;;;;;;;9.47;5.43;;;19.70;76.50;;;;;;5031920;28;20439;-78
2022/05/02 10:45:16;;;;;;;12.10;6.10;;;19.80;75.80;;;;;;5032492;28;20435;-77
2022/05/02 10:47:52;;;;;;;10.97;5.93;;;19.90;76.20;;;;;;5032415;28;20419;-78
2022/05/02 10:50:18;;;;;;;9.40;5.33;;;20.00;75.70;;;;;;5032940;28;20391;-77
2022/05/02 10:53:07;;;;;;;13.07;6.37;;;20.10;75.90;;;;;;5033305;28;20419;-78
2022/05/02 10:55:38;;;;;;;11.57;5.97;;;20.20;76.40;;;;;;5029481;28;20832;-75
2022/05/02 10:58:05;;;;;;;9.83;6.47;;;20.30;75.30;;;;;;5028683;28;20404;-75
2022/05/02 11:00:33;;;;;;;11.17;6.90;;;20.40;74.80;;;;;;5029889;28;20449;-74
2022/05/02 11:03:29;;;;;;;11.97;5.80;;;20.40;75.20;;;;;;5015327;28;20416;-76
2022/05/02 11:06:32;;;;;;;11.60;6.30;;;20.40;74.70;;;;;;5008751;28;20451;-76
2022/05/02 11:09:02;;;;;;;12.70;6.63;;;20.40;74.60;;;;;;5010225;28;20439;-76
2022/05/02 11:11:46;;;;;;;15.03;6.90;;;20.40;74.90;;;;;;5008839;28;21023;-75
2022/05/02 11:14:15;;;;;;;13.13;6.43;;;20.40;74.70;;;;;;5027942;28;20459;-76
2022/05/02 11:16:56;;;;;;;8.97;5.63;;;20.50;73.70;;;;;;5030381;28;20439;-76
2022/05/02 11:22:47;;;;;;;10.13;5.50;;;20.80;75.60;;;;;;4988536;28;20418;-76
2022/05/02 11:25:24;;;;;;;11.03;7.20;;;21.00;74.20;;;;;;4967565;28;21022;-78
2022/05/02 11:28:12;;;;;;;14.20;5.70;;;21.10;74.90;;;;;;4998208;28;20419;-76
2022/05/02 11:30:47;;;;;;;10.67;6.37;;;21.20;75.30;;;;;;5029267;28;20410;-77
2022/05/02 11:33:25;;;;;;;9.80;6.63;;;21.30;72.40;;;;;;5028254;28;20402;-75
2022/05/02 11:35:57;;;;;;;10.30;6.97;;;21.10;72.20;;;;;;5031837;28;20454;-76
2022/05/02 11:38:32;;;;;;;9.40;6.37;;;21.10;73.60;;;;;;5030055;28;20411;-76
2022/05/02 11:41:17;;;;;;;13.70;6.30;;;21.20;75.00;;;;;;5033439;28;20415;-76
2022/05/02 11:43:44;;;;;;;14.40;6.33;;;21.40;74.10;;;;;;5024632;28;20408;-76
2022/05/02 11:46:18;;;;;;;7.80;5.90;;;21.50;74.40;;;;;;5028014;28;20435;-77
2022/05/02 11:49:05;;;;;;;9.37;6.13;;;21.70;74.80;;;;;;5031055;28;20400;-76
2022/05/02 11:51:46;;;;;;;12.53;6.97;;;21.90;73.90;;;;;;5032801;28;21038;-77
2022/05/02 11:54:36;;;;;;;9.73;5.83;;;21.90;72.10;;;;;;5032193;28;20476;-78
2022/05/02 11:57:21;;;;;;;12.90;5.40;;;21.90;71.20;;;;;;5021270;28;20486;-77
2022/05/02 12:00:29;;;;;;;10.50;6.87;;;22.00;72.80;;;;;;5029528;28;20442;-80
2022/05/02 12:03:22;;;;;;;12.13;5.60;;;22.00;72.10;;;;;;4993741;28;20586;-77
2022/05/02 12:05:52;;;;;;;10.90;6.53;;;22.10;72.70;;;;;;4984649;28;20440;-77
2022/05/02 12:08:25;;;;;;;8.57;5.63;;;22.20;70.80;;;;;;5018077;28;20423;-79
2022/05/02 12:11:07;;;;;;;8.73;5.33;;;22.20;72.10;;;;;;5031379;28;20594;-83
2022/05/02 12:13:37;;;;;;;10.90;5.87;;;22.30;72.10;;;;;;5036733;28;21032;-79
2022/05/02 12:16:10;;;;;;;11.63;6.07;;;22.50;71.80;;;;;;5033170;28;20458;-78
2022/05/02 12:18:43;;;;;;;11.37;5.60;;;22.70;71.20;;;;;;5032283;28;20416;-77
2022/05/02 12:21:16;;;;;;;10.37;6.10;;;22.80;71.60;;;;;;5030795;28;20477;-78
2022/05/02 12:23:42;;;;;;;6.80;5.40;;;22.90;70.80;;;;;;5030451;28;21099;-77
2022/05/02 12:26:20;;;;;;;8.40;5.80;;;22.90;70.00;;;;;;5030647;28;20446;-78
2022/05/02 12:28:48;;;;;;;9.60;6.40;;;23.00;70.40;;;;;;5031031;28;21025;-77
2022/05/02 12:31:16;;;;;;;6.13;5.20;;;23.00;71.40;;;;;;5030384;28;20412;-77
2022/05/02 12:33:46;;;;;;;7.13;5.03;;;23.20;70.80;;;;;;5032314;28;20404;-77
2022/05/02 12:36:17;;;;;;;8.83;4.77;;;23.30;69.80;;;;;;5038592;28;20467;-79
2022/05/02 12:38:53;;;;;;;10.53;5.53;;;23.50;70.50;;;;;;5035199;28;20438;-80
2022/05/02 12:41:26;;;;;;;9.87;5.63;;;23.60;69.00;;;;;;5036304;28;20426;-78
2022/05/02 12:43:54;;;;;;;12.57;5.40;;;23.50;67.80;;;;;;5034031;28;20506;-79
2022/05/02 12:46:32;;;;;;;11.33;5.90;;;23.10;67.40;;;;;;5031361;28;20516;-78
2022/05/02 12:49:03;;;;;;;7.63;5.30;;;23.00;70.50;;;;;;5031473;28;20569;-77
2022/05/02 12:51:30;;;;;;;8.77;5.90;;;23.20;70.70;;;;;;5031289;28;21128;-77
2022/05/02 12:54:13;;;;;;;8.43;4.90;;;23.30;68.90;;;;;;5030473;28;20484;-79
2022/05/02 13:02:34;;;;;;;8.63;5.57;;;23.80;70.20;;;;;;5031745;28;20943;-78
2022/05/02 13:05:08;;;;;;;8.87;5.33;;;24.00;68.30;;;;;;5028236;28;20453;-84
2022/05/02 13:08:09;;;;;;;14.00;6.13;;;24.10;68.30;;;;;;5023047;28;20411;-82
2022/05/02 13:10:37;;;;;;;9.13;5.20;;;24.20;66.70;;;;;;5032018;28;20958;-85
2022/05/02 13:13:11;;;;;;;5.20;4.90;;;24.20;67.50;;;;;;5023596;28;20546;-78
2022/05/02 13:15:36;;;;;;;7.47;5.40;;;24.30;68.00;;;;;;5015553;28;20871;-78
2022/05/02 13:18:04;;;;;;;8.27;5.10;;;24.50;68.70;;;;;;5021142;28;20412;-79
2022/05/02 13:20:33;;;;;;;9.87;6.50;;;24.60;67.00;;;;;;5016549;28;20709;-79
2022/05/02 13:23:08;;;;;;;10.67;5.20;;;24.40;66.40;;;;;;5019620;28;20436;-79
2022/05/02 13:25:58;;;;;;;15.73;5.27;;;24.20;67.60;;;;;;5019452;28;20816;-84
2022/05/02 13:28:37;;;;;;;9.13;5.10;;;24.20;68.10;;;;;;5027925;28;20949;-83
2022/05/02 13:31:28;;;;;;;9.87;5.10;;;24.50;67.80;;;;;;5018192;28;20420;-85
2022/05/02 13:33:58;;;;;;;10.83;4.83;;;24.50;65.40;;;;;;5025896;28;20419;-78
2022/05/02 13:36:25;;;;;;;10.73;5.37;;;24.60;66.00;;;;;;5019583;28;20821;-78
2022/05/02 13:39:20;;;;;;;6.97;5.10;;;24.80;65.90;;;;;;5026823;28;20971;-79
2022/05/02 13:41:51;;;;;;;7.50;5.10;;;24.80;65.70;;;;;;5024137;28;20436;-78
2022/05/02 13:45:06;;;;;;;8.00;5.67;;;24.90;67.00;;;;;;5031482;28;20403;-78
2022/05/02 13:47:56;;;;;;;9.53;4.80;;;25.00;65.90;;;;;;5028259;28;20477;-78
2022/05/02 13:50:26;;;;;;;8.50;5.30;;;25.10;64.30;;;;;;5026007;28;20415;-78
2022/05/02 13:53:13;;;;;;;13.80;5.80;;;25.30;64.20;;;;;;5011839;28;20396;-80
2022/05/02 13:55:39;;;;;;;7.50;5.70;;;25.40;63.60;;;;;;5021042;28;20458;-79